Time;durP1;ratioP1;P1;durP2;ratioP2;P2;SDS_P1;SDS_P2;PMS_P1;PMS_P2;Temp;Humidity;BMP_temperature;BMP_pressure;BME280_temperature;BME280_humidity;BME280_pressure;Samples;Min_cycle;Max_cycle;Signal;HPM_P1;HPM_P2
2021/04/24 00:04:27;;;;;;;15.93;7.53;;;;;;;;;;12951371;22;20198;-73
2021/04/24 00:09:30;;;;;;;15.53;7.17;;;;;;;;;;12947225;22;20686;-74
2021/04/24 00:14:32;;;;;;;13.03;6.30;;;;;;;;;;12948661;22;20178;-74
2021/04/24 00:19:34;;;;;;;14.30;6.40;;;;;;;;;;12948984;22;20185;-74
2021/04/24 00:24:37;;;;;;;13.23;6.43;;;;;;;;;;12950461;22;20174;-74
2021/04/24 00:29:39;;;;;;;12.37;6.50;;;;;;;;;;12967513;22;20198;-74
2021/04/24 00:34:40;;;;;;;10.43;6.60;;;;;;;;;;12950193;22;20669;-74
2021/04/24 00:39:43;;;;;;;10.60;6.50;;;;;;;;;;12947897;22;20656;-74
2021/04/24 00:44:45;;;;;;;11.10;6.90;;;;;;;;;;12947360;22;20186;-74
2021/04/24 00:49:47;;;;;;;13.40;6.43;;;;;;;;;;12968177;22;20205;-74
2021/04/24 00:54:50;;;;;;;11.77;5.73;;;;;;;;;;12956063;22;20186;-73
2021/04/24 00:59:52;;;;;;;14.00;6.93;;;;;;;;;;12945000;22;20184;-74
2021/04/24 01:04:54;;;;;;;13.17;6.80;;;;;;;;;;12945946;22;20206;-74
2021/04/24 01:09:57;;;;;;;14.40;6.90;;;;;;;;;;12948476;22;20213;-73
2021/04/24 01:14:59;;;;;;;13.40;7.20;;;;;;;;;;12947536;22;20667;-74
2021/04/24 01:20:01;;;;;;;11.67;6.70;;;;;;;;;;12970627;22;20190;-75
2021/04/24 01:25:05;;;;;;;13.83;6.80;;;;;;;;;;12946630;22;20178;-73
2021/04/24 01:30:09;;;;;;;12.93;7.20;;;;;;;;;;12946183;22;20206;-74
2021/04/24 01:35:12;;;;;;;13.30;6.97;;;;;;;;;;12947800;22;20246;-74
2021/04/24 01:40:15;;;;;;;14.10;7.20;;;;;;;;;;12968440;22;20285;-74
2021/04/24 01:45:18;;;;;;;12.80;7.13;;;;;;;;;;12942320;22;20714;-74
2021/04/24 01:50:21;;;;;;;13.33;7.47;;;;;;;;;;12949157;22;20206;-73
2021/04/24 01:55:25;;;;;;;12.07;7.70;;;;;;;;;;12946657;22;20769;-74
2021/04/24 02:00:28;;;;;;;12.93;7.37;;;;;;;;;;12950220;22;20667;-73
2021/04/24 02:05:30;;;;;;;15.43;7.40;;;;;;;;;;12952960;22;20204;-73
2021/04/24 02:10:33;;;;;;;14.20;7.40;;;;;;;;;;12974228;22;20188;-73
2021/04/24 02:15:35;;;;;;;14.07;7.13;;;;;;;;;;12947246;22;20716;-73
2021/04/24 02:20:38;;;;;;;14.37;7.60;;;;;;;;;;12954167;22;20189;-73
2021/04/24 02:25:41;;;;;;;14.60;7.70;;;;;;;;;;12950690;22;20257;-73
2021/04/24 02:30:43;;;;;;;12.73;7.43;;;;;;;;;;12950134;22;20179;-73
2021/04/24 02:35:46;;;;;;;14.17;7.27;;;;;;;;;;12972114;22;20549;-73
2021/04/24 02:40:49;;;;;;;12.60;8.13;;;;;;;;;;12950990;22;20170;-73
2021/04/24 02:45:51;;;;;;;16.67;8.27;;;;;;;;;;12945432;22;20174;-73
2021/04/24 02:50:53;;;;;;;13.93;8.20;;;;;;;;;;12951417;22;20486;-73
2021/04/24 02:55:56;;;;;;;13.77;7.87;;;;;;;;;;12948721;22;20189;-73
2021/04/24 03:01:02;;;;;;;14.17;7.47;;;;;;;;;;12969929;22;20508;-73
2021/04/24 03:06:04;;;;;;;13.57;7.93;;;;;;;;;;12950220;22;20194;-73
2021/04/24 03:11:06;;;;;;;15.90;8.20;;;;;;;;;;12949102;22;20924;-73
2021/04/24 03:16:08;;;;;;;12.50;7.60;;;;;;;;;;12945363;22;20182;-74
2021/04/24 03:21:11;;;;;;;16.37;8.33;;;;;;;;;;12952777;22;20237;-74
2021/04/24 03:26:13;;;;;;;15.10;8.13;;;;;;;;;;12969707;22;20190;-73
2021/04/24 03:31:16;;;;;;;15.63;7.67;;;;;;;;;;12969279;22;20182;-73
2021/04/24 03:36:18;;;;;;;13.77;8.10;;;;;;;;;;12949406;22;20429;-73
2021/04/24 03:41:20;;;;;;;18.60;8.60;;;;;;;;;;12951134;22;20258;-73
2021/04/24 03:46:22;;;;;;;15.40;8.57;;;;;;;;;;12945624;22;20226;-73
2021/04/24 03:51:25;;;;;;;15.43;8.23;;;;;;;;;;12971374;22;20171;-73
2021/04/24 03:56:27;;;;;;;14.57;8.60;;;;;;;;;;12971576;22;20209;-73
2021/04/24 04:01:29;;;;;;;17.23;8.13;;;;;;;;;;12947484;22;20194;-73
2021/04/24 04:06:31;;;;;;;16.70;8.37;;;;;;;;;;12949952;22;20206;-74
2021/04/24 04:11:34;;;;;;;14.03;8.13;;;;;;;;;;12948896;22;20174;-74
2021/04/24 04:16:36;;;;;;;17.40;8.27;;;;;;;;;;12967091;22;20205;-73
2021/04/24 04:21:38;;;;;;;16.27;9.10;;;;;;;;;;12947185;22;20319;-73
2021/04/24 04:26:41;;;;;;;15.03;8.27;;;;;;;;;;12948247;22;20198;-74
2021/04/24 04:31:43;;;;;;;18.43;8.63;;;;;;;;;;12944622;22;20444;-73
2021/04/24 04:36:45;;;;;;;12.97;8.30;;;;;;;;;;12947769;22;20708;-73
2021/04/24 04:41:48;;;;;;;17.03;9.07;;;;;;;;;;12965884;22;20181;-73
2021/04/24 04:46:49;;;;;;;17.00;8.83;;;;;;;;;;12966291;22;20203;-73
2021/04/24 04:51:51;;;;;;;15.20;8.27;;;;;;;;;;12947537;22;20190;-74
2021/04/24 04:56:55;;;;;;;13.70;8.53;;;;;;;;;;12970546;22;20201;-74
2021/04/24 05:01:56;;;;;;;19.30;8.87;;;;;;;;;;12944732;22;20198;-75
2021/04/24 05:07:07;;;;;;;15.87;9.23;;;;;;;;;;12968962;22;20895;-75
2021/04/24 05:12:13;;;;;;;16.40;8.60;;;;;;;;;;12946005;22;20178;-75
2021/04/24 05:17:15;;;;;;;13.87;8.10;;;;;;;;;;12945657;22;20189;-74
2021/04/24 05:22:17;;;;;;;18.00;9.27;;;;;;;;;;12945875;22;20854;-73
2021/04/24 05:27:20;;;;;;;15.20;9.10;;;;;;;;;;12967831;22;20237;-74
2021/04/24 05:32:22;;;;;;;16.70;9.27;;;;;;;;;;12944222;22;20192;-73
2021/04/24 05:37:25;;;;;;;16.13;9.00;;;;;;;;;;12948168;22;20174;-73
2021/04/24 05:42:28;;;;;;;17.43;8.87;;;;;;;;;;12944290;22;20178;-73
2021/04/24 05:47:30;;;;;;;16.73;9.40;;;;;;;;;;12968117;22;20194;-73
2021/04/24 05:52:32;;;;;;;19.00;9.40;;;;;;;;;;12945698;22;20186;-74
2021/04/24 05:57:35;;;;;;;15.43;8.97;;;;;;;;;;12946366;22;20874;-74
2021/04/24 06:02:37;;;;;;;17.83;9.43;;;;;;;;;;12945255;22;20195;-74
2021/04/24 06:07:39;;;;;;;17.17;9.50;;;;;;;;;;12948894;22;20209;-73
2021/04/24 06:12:43;;;;;;;15.07;8.50;;;;;;;;;;12964769;22;20200;-74
2021/04/24 06:17:45;;;;;;;17.03;8.73;;;;;;;;;;12968580;22;20182;-74
2021/04/24 06:22:47;;;;;;;16.07;8.27;;;;;;;;;;12968559;22;20262;-74
2021/04/24 06:27:50;;;;;;;13.80;8.13;;;;;;;;;;12946022;22;20228;-74
2021/04/24 06:32:53;;;;;;;20.50;8.40;;;;;;;;;;12965428;22;20749;-74
2021/04/24 06:37:57;;;;;;;17.63;7.90;;;;;;;;;;12969422;22;20514;-74
2021/04/24 06:43:00;;;;;;;14.67;7.50;;;;;;;;;;12945431;22;20186;-73
2021/04/24 06:48:02;;;;;;;13.80;7.13;;;;;;;;;;12971006;22;20202;-73
2021/04/24 06:53:04;;;;;;;14.33;6.50;;;;;;;;;;12951966;22;20182;-73
2021/04/24 06:58:06;;;;;;;12.10;6.23;;;;;;;;;;12948385;22;20533;-73
2021/04/24 07:03:08;;;;;;;10.97;6.17;;;;;;;;;;12948301;22;20202;-74
2021/04/24 07:08:10;;;;;;;11.20;5.70;;;;;;;;;;12948916;22;20278;-73
2021/04/24 07:13:13;;;;;;;10.13;5.30;;;;;;;;;;12948366;22;20185;-74
2021/04/24 07:18:15;;;;;;;12.67;5.50;;;;;;;;;;12945217;22;20178;-74
2021/04/24 07:23:17;;;;;;;9.93;5.67;;;;;;;;;;12950559;22;20233;-73
2021/04/24 07:28:20;;;;;;;10.83;5.40;;;;;;;;;;12945312;22;20221;-74
2021/04/24 07:33:23;;;;;;;11.20;5.37;;;;;;;;;;12948790;22;20284;-74
2021/04/24 07:38:25;;;;;;;8.80;5.17;;;;;;;;;;12949604;22;20186;-76
2021/04/24 07:43:28;;;;;;;8.63;4.80;;;;;;;;;;12944757;22;20557;-75
2021/04/24 07:48:30;;;;;;;6.43;3.83;;;;;;;;;;12947083;22;21041;-76
2021/04/24 07:53:33;;;;;;;8.93;4.20;;;;;;;;;;12946852;22;20213;-73
2021/04/24 07:58:35;;;;;;;6.97;3.20;;;;;;;;;;12946469;22;20209;-78
2021/04/24 08:03:37;;;;;;;8.00;3.60;;;;;;;;;;12966229;22;20947;-74
2021/04/24 08:08:39;;;;;;;4.53;2.83;;;;;;;;;;12947481;22;20214;-72
2021/04/24 08:13:42;;;;;;;7.13;3.30;;;;;;;;;;12944303;22;20185;-73
2021/04/24 08:18:44;;;;;;;5.60;2.87;;;;;;;;;;12946901;22;20204;-73
2021/04/24 08:23:47;;;;;;;5.85;2.80;;;;;;;;;;12963831;22;20422;-78
2021/04/24 08:28:50;;;;;;;6.23;3.40;;;;;;;;;;12964176;22;20206;-75
2021/04/24 08:33:52;;;;;;;8.03;3.00;;;;;;;;;;12963963;22;20171;-72
2021/04/24 08:38:55;;;;;;;7.10;3.70;;;;;;;;;;12942782;22;20388;-73
2021/04/24 08:43:58;;;;;;;5.00;3.27;;;;;;;;;;12939482;22;20196;-72
2021/04/24 08:49:01;;;;;;;6.37;3.17;;;;;;;;;;12964109;22;20252;-73
2021/04/24 08:54:03;;;;;;;3.67;2.67;;;;;;;;;;12940068;22;20659;-74
2021/04/24 08:59:06;;;;;;;5.80;2.93;;;;;;;;;;12940721;22;20178;-72
2021/04/24 09:04:12;;;;;;;4.87;3.00;;;;;;;;;;12940047;22;20958;-72
2021/04/24 09:09:16;;;;;;;7.17;3.30;;;;;;;;;;12945600;22;20218;-73
2021/04/24 09:14:23;;;;;;;8.03;3.27;;;;;;;;;;12940386;22;20177;-73
2021/04/24 09:19:31;;;;;;;5.60;3.27;;;;;;;;;;12945842;22;20636;-72
2021/04/24 09:24:33;;;;;;;6.97;3.30;;;;;;;;;;12943919;22;20169;-73
2021/04/24 09:29:36;;;;;;;6.90;2.90;;;;;;;;;;12943796;22;20209;-73
2021/04/24 09:34:38;;;;;;;5.47;3.13;;;;;;;;;;12943142;22;20685;-73
2021/04/24 09:39:46;;;;;;;4.63;3.03;;;;;;;;;;12944498;22;20183;-72
2021/04/24 09:44:49;;;;;;;5.10;3.20;;;;;;;;;;12944551;22;20189;-72
2021/04/24 09:49:51;;;;;;;6.53;3.30;;;;;;;;;;12944741;22;20212;-72
2021/04/24 09:54:53;;;;;;;4.70;2.93;;;;;;;;;;12945425;22;20232;-72
2021/04/24 09:59:56;;;;;;;7.20;3.37;;;;;;;;;;12941032;22;20184;-77
2021/04/24 10:05:11;;;;;;;6.10;3.27;;;;;;;;;;12944198;22;20194;-74
2021/04/24 10:10:14;;;;;;;7.20;3.80;;;;;;;;;;12941359;22;20540;-73
2021/04/24 10:15:33;;;;;;;5.53;3.53;;;;;;;;;;12943343;22;20200;-74
2021/04/24 10:20:35;;;;;;;5.17;3.47;;;;;;;;;;12947360;22;20285;-74
2021/04/24 10:25:37;;;;;;;6.03;4.07;;;;;;;;;;12950160;22;20185;-73
2021/04/24 10:30:40;;;;;;;6.80;3.50;;;;;;;;;;12945888;22;20613;-74
2021/04/24 10:35:45;;;;;;;5.83;3.57;;;;;;;;;;12949484;22;20651;-78
2021/04/24 10:40:47;;;;;;;8.13;3.90;;;;;;;;;;12969261;22;20182;-73
2021/04/24 10:45:51;;;;;;;5.40;3.50;;;;;;;;;;12946479;22;20266;-74
2021/04/24 10:50:54;;;;;;;6.93;3.80;;;;;;;;;;12970158;22;20922;-78
2021/04/24 10:55:57;;;;;;;4.93;3.60;;;;;;;;;;12946141;22;20206;-74
2021/04/24 11:01:00;;;;;;;8.43;3.83;;;;;;;;;;12944177;22;20178;-75
2021/04/24 11:06:07;;;;;;;6.70;3.93;;;;;;;;;;12949873;22;20174;-78
2021/04/24 11:11:10;;;;;;;6.43;4.00;;;;;;;;;;12946997;22;20205;-73
2021/04/24 11:16:14;;;;;;;7.87;3.70;;;;;;;;;;12962980;22;20761;-74
2021/04/24 11:21:23;;;;;;;5.93;3.70;;;;;;;;;;12940974;22;20182;-74
2021/04/24 11:26:39;;;;;;;5.73;3.97;;;;;;;;;;12966660;22;20170;-72
2021/04/24 11:31:50;;;;;;;9.90;4.10;;;;;;;;;;12931656;22;20174;-75
2021/04/24 11:37:17;;;;;;;7.77;4.10;;;;;;;;;;12945775;22;20178;-72
2021/04/24 11:42:29;;;;;;;9.27;4.13;;;;;;;;;;12942382;22;20179;-73
2021/04/24 11:47:50;;;;;;;10.30;4.57;;;;;;;;;;12944387;22;20194;-72
2021/04/24 11:52:52;;;;;;;7.43;4.47;;;;;;;;;;12944584;22;20185;-73
2021/04/24 11:58:01;;;;;;;11.03;4.80;;;;;;;;;;12944121;22;20174;-72
2021/04/24 12:03:05;;;;;;;8.97;5.10;;;;;;;;;;12957490;22;20281;-75
2021/04/24 12:08:07;;;;;;;8.67;5.10;;;;;;;;;;12947177;22;20328;-77
2021/04/24 12:13:09;;;;;;;8.77;4.80;;;;;;;;;;12964591;22;20174;-74
2021/04/24 12:18:12;;;;;;;12.10;5.57;;;;;;;;;;12946599;22;20209;-74
2021/04/24 12:23:15;;;;;;;6.40;4.47;;;;;;;;;;12966696;22;20284;-74
2021/04/24 12:28:19;;;;;;;9.33;5.10;;;;;;;;;;12967588;22;20211;-73
2021/04/24 12:38:39;;;;;;;9.20;4.57;;;;;;;;;;12803157;22;20455;-81
2021/04/24 12:43:42;;;;;;;14.70;5.60;;;;;;;;;;12810187;23;20230;-77
2021/04/24 12:48:47;;;;;;;10.23;5.60;;;;;;;;;;12817856;23;20207;-82
2021/04/24 12:53:52;;;;;;;12.37;5.53;;;;;;;;;;12817737;23;20482;-79
2021/04/24 12:59:02;;;;;;;7.37;4.33;;;;;;;;;;12811291;23;20821;-78
2021/04/24 13:04:13;;;;;;;9.00;5.03;;;;;;;;;;12792866;23;20196;-76
2021/04/24 13:09:19;;;;;;;10.80;5.30;;;;;;;;;;12817961;23;20911;-75
2021/04/24 13:14:22;;;;;;;9.97;5.03;;;;;;;;;;12807245;23;20194;-77
2021/04/24 13:19:25;;;;;;;9.83;5.00;;;;;;;;;;12795777;23;20547;-75
2021/04/24 13:24:28;;;;;;;15.10;4.67;;;;;;;;;;12788702;23;20210;-77
2021/04/24 13:29:31;;;;;;;10.47;4.73;;;;;;;;;;12791756;23;20215;-76
2021/04/24 13:34:34;;;;;;;8.87;4.40;;;;;;;;;;12811159;23;20183;-77
2021/04/24 13:39:45;;;;;;;9.10;4.10;;;;;;;;;;12812667;23;20183;-82
2021/04/24 13:44:50;;;;;;;8.17;3.70;;;;;;;;;;12808374;23;20222;-77
2021/04/24 13:49:52;;;;;;;8.57;3.97;;;;;;;;;;12818152;23;20223;-78
2021/04/24 13:54:55;;;;;;;10.17;3.73;;;;;;;;;;12815117;23;20202;-78
2021/04/24 13:59:57;;;;;;;9.90;3.80;;;;;;;;;;12817875;23;20179;-77
2021/04/24 14:04:59;;;;;;;8.77;3.73;;;;;;;;;;12802839;23;20532;-77
2021/04/24 14:10:02;;;;;;;8.17;3.87;;;;;;;;;;12818764;23;20283;-77
2021/04/24 14:15:05;;;;;;;9.97;3.87;;;;;;;;;;12793177;23;20278;-77
2021/04/24 14:20:08;;;;;;;7.57;3.53;;;;;;;;;;12796118;23;20184;-77
2021/04/24 14:25:11;;;;;;;11.07;3.87;;;;;;;;;;12820090;23;20180;-77
2021/04/24 14:30:15;;;;;;;9.60;3.90;;;;;;;;;;12813041;23;20294;-77
2021/04/24 14:35:17;;;;;;;9.30;3.50;;;;;;;;;;12823817;23;20187;-78
2021/04/24 14:40:21;;;;;;;7.40;3.40;;;;;;;;;;12819860;23;20234;-81
2021/04/24 14:45:23;;;;;;;9.70;3.00;;;;;;;;;;12813569;23;20668;-78
2021/04/24 14:50:25;;;;;;;8.83;2.60;;;;;;;;;;12797181;23;20201;-79
2021/04/24 14:55:28;;;;;;;5.47;2.40;;;;;;;;;;12817055;23;20175;-75
2021/04/24 15:00:30;;;;;;;9.70;2.57;;;;;;;;;;12811642;23;20179;-76
2021/04/24 15:05:32;;;;;;;11.37;3.13;;;;;;;;;;12798146;23;20254;-81
2021/04/24 15:10:35;;;;;;;5.23;2.60;;;;;;;;;;12792234;23;20738;-77
2021/04/24 15:15:38;;;;;;;5.93;2.60;;;;;;;;;;12791081;23;20993;-88
2021/04/24 15:20:40;;;;;;;5.67;2.23;;;;;;;;;;12814346;23;20184;-80
2021/04/24 15:25:43;;;;;;;5.73;2.07;;;;;;;;;;12796123;23;20678;-81
2021/04/24 15:30:46;;;;;;;7.23;2.30;;;;;;;;;;12790835;23;20203;-78
2021/04/24 15:35:48;;;;;;;3.77;2.20;;;;;;;;;;12799598;23;20703;-77
2021/04/24 15:40:51;;;;;;;5.70;2.10;;;;;;;;;;12792414;23;20667;-78
2021/04/24 15:45:54;;;;;;;3.97;2.00;;;;;;;;;;12790596;23;20286;-77
2021/04/24 15:50:56;;;;;;;13.03;2.17;;;;;;;;;;12794263;23;20207;-77
2021/04/24 15:56:00;;;;;;;7.63;2.40;;;;;;;;;;12794763;23;20180;-76
2021/04/24 16:01:02;;;;;;;5.13;2.30;;;;;;;;;;12783133;23;20585;-76
2021/04/24 16:06:04;;;;;;;5.17;2.23;;;;;;;;;;12816457;23;20179;-76
2021/04/24 16:11:07;;;;;;;6.83;2.30;;;;;;;;;;12792525;23;20595;-76
2021/04/24 16:16:09;;;;;;;5.47;2.30;;;;;;;;;;12813200;23;20179;-75
2021/04/24 16:21:11;;;;;;;6.03;2.27;;;;;;;;;;12811099;23;20255;-76
2021/04/24 16:26:14;;;;;;;6.47;2.43;;;;;;;;;;12814134;23;20640;-75
2021/04/24 16:31:17;;;;;;;4.00;2.00;;;;;;;;;;12786315;23;20809;-75
2021/04/24 16:36:19;;;;;;;5.17;2.20;;;;;;;;;;12799525;23;20194;-75
2021/04/24 16:41:22;;;;;;;6.30;2.00;;;;;;;;;;12792539;23;20696;-76
2021/04/24 16:46:25;;;;;;;3.67;2.00;;;;;;;;;;12814090;23;20528;-76
2021/04/24 16:51:26;;;;;;;4.93;2.10;;;;;;;;;;12798988;23;20675;-82
2021/04/24 16:56:29;;;;;;;3.77;2.10;;;;;;;;;;12792061;23;21296;-78
2021/04/24 17:01:32;;;;;;;4.23;1.90;;;;;;;;;;12785843;23;20206;-76
2021/04/24 17:06:35;;;;;;;4.80;2.30;;;;;;;;;;12791353;23;20183;-81
2021/04/24 17:11:38;;;;;;;6.20;2.13;;;;;;;;;;12796988;23;20204;-87
2021/04/24 17:16:39;;;;;;;6.40;2.30;;;;;;;;;;12789333;23;20675;-77
2021/04/24 17:21:42;;;;;;;3.97;2.17;;;;;;;;;;12796455;23;20450;-79
2021/04/24 17:26:45;;;;;;;4.50;2.07;;;;;;;;;;12787406;23;20648;-76
2021/04/24 17:31:46;;;;;;;4.17;2.20;;;;;;;;;;12806195;23;21084;-75
2021/04/24 17:36:49;;;;;;;4.23;2.40;;;;;;;;;;12797229;23;20563;-76
2021/04/24 17:41:52;;;;;;;4.60;2.33;;;;;;;;;;12795690;23;20563;-75
2021/04/24 17:46:55;;;;;;;4.67;2.30;;;;;;;;;;12786219;23;20485;-75
2021/04/24 17:51:57;;;;;;;4.23;2.07;;;;;;;;;;12795827;23;20676;-75
2021/04/24 17:57:00;;;;;;;4.47;2.10;;;;;;;;;;12813409;23;20182;-76
2021/04/24 18:02:02;;;;;;;4.07;2.10;;;;;;;;;;12786122;23;20196;-77
2021/04/24 18:07:05;;;;;;;4.13;1.87;;;;;;;;;;12788410;23;20176;-75
2021/04/24 18:12:08;;;;;;;4.83;2.20;;;;;;;;;;12779309;23;20207;-74
2021/04/24 18:17:11;;;;;;;3.70;2.33;;;;;;;;;;12779823;23;20869;-74
2021/04/24 18:22:13;;;;;;;4.57;2.20;;;;;;;;;;12809946;23;20180;-74
2021/04/24 18:27:16;;;;;;;5.83;2.37;;;;;;;;;;12785881;23;20180;-75
2021/04/24 18:32:18;;;;;;;3.93;2.50;;;;;;;;;;12789746;23;20619;-74
2021/04/24 18:37:20;;;;;;;4.67;2.20;;;;;;;;;;12785019;23;20964;-75
2021/04/24 18:42:23;;;;;;;6.83;2.53;;;;;;;;;;12791866;23;20932;-74
2021/04/24 18:47:25;;;;;;;7.77;2.60;;;;;;;;;;12785899;23;20176;-74
2021/04/24 18:52:26;;;;;;;6.63;2.37;;;;;;;;;;12795356;23;20605;-74
2021/04/24 18:57:30;;;;;;;5.37;2.60;;;;;;;;;;12785969;23;20179;-73
2021/04/24 19:02:32;;;;;;;2.97;2.17;;;;;;;;;;12782909;23;20233;-74
2021/04/24 19:07:34;;;;;;;3.53;2.10;;;;;;;;;;12787171;23;20182;-73
2021/04/24 19:12:37;;;;;;;6.67;2.53;;;;;;;;;;12786595;23;20180;-74
2021/04/24 19:17:39;;;;;;;6.13;2.40;;;;;;;;;;12789496;23;20175;-74
2021/04/24 19:22:41;;;;;;;2.93;2.10;;;;;;;;;;12796804;23;21092;-73
2021/04/24 19:27:44;;;;;;;2.97;2.10;;;;;;;;;;12790383;23;20187;-73
2021/04/24 19:32:47;;;;;;;4.13;2.10;;;;;;;;;;12813952;23;20521;-74
2021/04/24 19:37:51;;;;;;;5.53;2.50;;;;;;;;;;12816455;23;20188;-73
2021/04/24 19:42:54;;;;;;;4.00;2.60;;;;;;;;;;12779842;23;20183;-73
2021/04/24 19:47:57;;;;;;;3.87;2.47;;;;;;;;;;12788387;23;20179;-74
2021/04/24 19:53:00;;;;;;;4.30;2.30;;;;;;;;;;12789678;23;20234;-73
2021/04/24 19:58:06;;;;;;;5.03;2.70;;;;;;;;;;12793439;23;20558;-74
2021/04/24 20:03:08;;;;;;;5.17;3.10;;;;;;;;;;12807176;23;20276;-73
2021/04/24 20:08:10;;;;;;;3.60;2.60;;;;;;;;;;12793991;23;20544;-73
2021/04/24 20:13:13;;;;;;;5.50;2.80;;;;;;;;;;12792476;23;20180;-74
2021/04/24 20:18:15;;;;;;;4.63;2.63;;;;;;;;;;12806998;23;20584;-73
2021/04/24 20:23:17;;;;;;;4.53;3.00;;;;;;;;;;12790754;23;20655;-75
2021/04/24 20:28:20;;;;;;;4.50;2.97;;;;;;;;;;12786210;23;20230;-75
2021/04/24 20:33:23;;;;;;;7.70;3.30;;;;;;;;;;12790514;23;20190;-79
2021/04/24 20:38:25;;;;;;;6.40;3.10;;;;;;;;;;12791024;23;20882;-77
2021/04/24 20:43:34;;;;;;;5.90;3.07;;;;;;;;;;12789974;23;20176;-79
2021/04/24 20:48:36;;;;;;;5.23;3.20;;;;;;;;;;12810377;23;20668;-76
2021/04/24 20:53:48;;;;;;;18.70;3.67;;;;;;;;;;12813549;23;20186;-79
2021/04/24 20:58:51;;;;;;;8.50;4.00;;;;;;;;;;12781195;23;20182;-74
2021/04/24 21:03:53;;;;;;;8.63;4.00;;;;;;;;;;12791176;23;20226;-73
2021/04/24 21:08:55;;;;;;;9.37;3.97;;;;;;;;;;12791084;23;20622;-74
2021/04/24 21:13:59;;;;;;;6.27;3.83;;;;;;;;;;12789047;23;20186;-74
2021/04/24 21:19:01;;;;;;;9.37;4.40;;;;;;;;;;12789922;23;20385;-74
2021/04/24 21:24:03;;;;;;;11.23;4.80;;;;;;;;;;12816216;23;20398;-75
2021/04/24 21:29:07;;;;;;;8.60;4.90;;;;;;;;;;12788255;23;20523;-74
2021/04/24 21:34:10;;;;;;;11.47;5.13;;;;;;;;;;12794452;23;20214;-75
2021/04/24 21:39:12;;;;;;;12.07;5.33;;;;;;;;;;12809650;23;20542;-74
2021/04/24 21:44:15;;;;;;;13.00;5.20;;;;;;;;;;12811839;23;20176;-74
2021/04/24 21:49:17;;;;;;;9.93;5.20;;;;;;;;;;12797557;23;21135;-74
2021/04/24 21:54:19;;;;;;;11.80;5.97;;;;;;;;;;12796072;23;20199;-74
2021/04/24 21:59:22;;;;;;;10.53;5.77;;;;;;;;;;12790321;23;20234;-74
2021/04/24 22:04:24;;;;;;;9.43;5.70;;;;;;;;;;12820309;23;20527;-74
2021/04/24 22:09:26;;;;;;;12.43;6.77;;;;;;;;;;12794108;23;20261;-74
2021/04/24 22:14:29;;;;;;;12.53;6.23;;;;;;;;;;12791830;23;20750;-74
2021/04/24 22:19:31;;;;;;;12.40;6.30;;;;;;;;;;12801553;23;20190;-74
2021/04/24 22:24:33;;;;;;;18.23;6.57;;;;;;;;;;12801151;23;20507;-75
2021/04/24 22:29:36;;;;;;;9.27;5.90;;;;;;;;;;12801194;23;21008;-74
2021/04/24 22:34:42;;;;;;;11.87;5.97;;;;;;;;;;12827273;23;20184;-73
2021/04/24 22:39:44;;;;;;;13.33;6.10;;;;;;;;;;12805757;23;20175;-73
2021/04/24 22:44:47;;;;;;;9.33;5.50;;;;;;;;;;12797702;23;20246;-74
2021/04/24 22:49:49;;;;;;;10.80;5.93;;;;;;;;;;12825822;23;20228;-74
2021/04/24 22:54:51;;;;;;;11.63;6.13;;;;;;;;;;12804523;23;20659;-74
2021/04/24 22:59:53;;;;;;;12.17;6.43;;;;;;;;;;12800683;23;20180;-75
2021/04/24 23:04:59;;;;;;;13.43;6.23;;;;;;;;;;12801804;23;20715;-74
2021/04/24 23:10:01;;;;;;;11.30;5.73;;;;;;;;;;12803123;23;20217;-73
2021/04/24 23:15:04;;;;;;;11.93;5.93;;;;;;;;;;12798618;23;20610;-74
2021/04/24 23:20:07;;;;;;;11.27;6.00;;;;;;;;;;12800571;23;20255;-74
2021/04/24 23:25:10;;;;;;;12.93;6.30;;;;;;;;;;12798201;23;20176;-74
2021/04/24 23:30:13;;;;;;;11.43;6.23;;;;;;;;;;12798541;23;20248;-74
2021/04/24 23:35:15;;;;;;;13.57;6.30;;;;;;;;;;12801570;23;20184;-74
2021/04/24 23:40:17;;;;;;;9.50;6.30;;;;;;;;;;12801390;23;20179;-74
2021/04/24 23:45:20;;;;;;;11.43;6.10;;;;;;;;;;12797349;23;20573;-73
2021/04/24 23:50:22;;;;;;;11.67;5.93;;;;;;;;;;12806409;23;20208;-74
2021/04/24 23:55:25;;;;;;;12.03;6.30;;;;;;;;;;12798590;23;20184;-73
